sensor_id;sensor_type;location;lat;lon;timestamp;P1;durP1;ratioP1;P2;durP2;ratioP2
16430;SDS011;8325;49.284;7.238;2022-07-22T04:02:16;12.00;;;10.25;;
16430;SDS011;8325;49.284;7.238;2022-07-22T04:06:30;12.20;;;10.27;;
16430;SDS011;8325;49.284;7.238;2022-07-22T04:10:49;12.07;;;10.30;;
16430;SDS011;8325;49.284;7.238;2022-07-22T04:15:01;13.05;;;10.07;;
16430;SDS011;8325;49.284;7.238;2022-07-22T04:19:13;13.40;;;10.70;;
16430;SDS011;8325;49.284;7.238;2022-07-22T04:23:45;11.98;;;10.52;;
16430;SDS011;8325;49.284;7.238;2022-07-22T04:28:06;12.75;;;10.57;;
16430;SDS011;8325;49.284;7.238;2022-07-22T04:32:18;12.52;;;11.13;;
16430;SDS011;8325;49.284;7.238;2022-07-22T04:36:29;15.65;;;11.38;;
16430;SDS011;8325;49.284;7.238;2022-07-22T04:40:42;12.50;;;11.15;;
16430;SDS011;8325;49.284;7.238;2022-07-22T04:44:54;14.15;;;11.80;;
16430;SDS011;8325;49.284;7.238;2022-07-22T04:49:06;16.05;;;11.80;;
16430;SDS011;8325;49.284;7.238;2022-07-22T04:53:18;13.35;;;10.73;;
16430;SDS011;8325;49.284;7.238;2022-07-22T04:57:50;12.57;;;10.75;;
16430;SDS011;8325;49.284;7.238;2022-07-22T05:02:08;12.77;;;11.38;;
16430;SDS011;8325;49.284;7.238;2022-07-22T05:06:29;14.60;;;10.90;;
16430;SDS011;8325;49.284;7.238;2022-07-22T05:10:50;12.48;;;10.57;;
16430;SDS011;8325;49.284;7.238;2022-07-22T05:15:06;14.80;;;11.60;;
16430;SDS011;8325;49.284;7.238;2022-07-22T05:19:50;13.48;;;11.18;;
16430;SDS011;8325;49.284;7.238;2022-07-22T05:24:06;14.00;;;10.57;;
16430;SDS011;8325;49.284;7.238;2022-07-22T05:28:52;13.70;;;11.05;;
16430;SDS011;8325;49.284;7.238;2022-07-22T05:39:14;13.88;;;11.52;;
16430;SDS011;8325;49.284;7.238;2022-07-22T05:43:59;11.80;;;9.55;;
16430;SDS011;8325;49.284;7.238;2022-07-22T05:48:20;10.95;;;9.82;;
16430;SDS011;8325;49.284;7.238;2022-07-22T05:52:31;10.35;;;9.30;;
16430;SDS011;8325;49.284;7.238;2022-07-22T05:56:43;10.15;;;9.15;;
16430;SDS011;8325;49.284;7.238;2022-07-22T06:00:55;11.68;;;9.23;;
16430;SDS011;8325;49.284;7.238;2022-07-22T06:05:07;10.20;;;9.20;;
16430;SDS011;8325;49.284;7.238;2022-07-22T06:09:19;12.57;;;8.70;;
16430;SDS011;8325;49.284;7.238;2022-07-22T06:13:31;9.68;;;8.68;;
16430;SDS011;8325;49.284;7.238;2022-07-22T06:17:43;9.02;;;8.13;;
16430;SDS011;8325;49.284;7.238;2022-07-22T06:21:55;10.85;;;8.18;;
16430;SDS011;8325;49.284;7.238;2022-07-22T06:26:07;9.07;;;8.27;;
16430;SDS011;8325;49.284;7.238;2022-07-22T06:30:19;8.98;;;7.90;;
16430;SDS011;8325;49.284;7.238;2022-07-22T06:34:31;9.00;;;8.10;;
16430;SDS011;8325;49.284;7.238;2022-07-22T06:38:47;10.60;;;8.43;;
16430;SDS011;8325;49.284;7.238;2022-07-22T06:43:04;9.88;;;7.60;;
16430;SDS011;8325;49.284;7.238;2022-07-22T06:47:35;10.27;;;8.25;;
16430;SDS011;8325;49.284;7.238;2022-07-22T06:51:49;9.23;;;7.80;;
16430;SDS011;8325;49.284;7.238;2022-07-22T06:56:01;9.45;;;8.05;;
16430;SDS011;8325;49.284;7.238;2022-07-22T07:00:17;10.32;;;8.40;;
16430;SDS011;8325;49.284;7.238;2022-07-22T07:04:50;9.45;;;8.45;;
16430;SDS011;8325;49.284;7.238;2022-07-22T07:09:02;8.82;;;7.90;;
16430;SDS011;8325;49.284;7.238;2022-07-22T07:13:15;9.35;;;8.35;;
16430;SDS011;8325;49.284;7.238;2022-07-22T07:17:28;11.50;;;8.48;;
16430;SDS011;8325;49.284;7.238;2022-07-22T07:21:40;11.75;;;8.27;;
16430;SDS011;8325;49.284;7.238;2022-07-22T07:25:52;9.95;;;8.05;;
16430;SDS011;8325;49.284;7.238;2022-07-22T07:30:05;10.25;;;8.27;;
16430;SDS011;8325;49.284;7.238;2022-07-22T07:34:17;12.32;;;8.43;;
16430;SDS011;8325;49.284;7.238;2022-07-22T07:38:29;11.82;;;8.68;;
16430;SDS011;8325;49.284;7.238;2022-07-22T07:42:41;11.02;;;8.27;;
16430;SDS011;8325;49.284;7.238;2022-07-22T07:46:59;8.88;;;7.93;;
16430;SDS011;8325;49.284;7.238;2022-07-22T07:51:11;10.13;;;8.38;;
16430;SDS011;8325;49.284;7.238;2022-07-22T07:55:25;10.25;;;7.53;;
16430;SDS011;8325;49.284;7.238;2022-07-22T07:59:37;8.93;;;7.70;;
16430;SDS011;8325;49.284;7.238;2022-07-22T08:03:50;8.63;;;7.53;;
16430;SDS011;8325;49.284;7.238;2022-07-22T08:08:22;13.15;;;8.35;;
16430;SDS011;8325;49.284;7.238;2022-07-22T08:12:36;8.45;;;7.10;;
16430;SDS011;8325;49.284;7.238;2022-07-22T08:17:20;10.10;;;7.78;;
16430;SDS011;8325;49.284;7.238;2022-07-22T08:21:32;8.90;;;7.05;;
16430;SDS011;8325;49.284;7.238;2022-07-22T08:25:59;10.18;;;8.07;;
16430;SDS011;8325;49.284;7.238;2022-07-22T08:30:11;11.05;;;7.60;;
16430;SDS011;8325;49.284;7.238;2022-07-22T08:34:23;8.75;;;7.80;;
16430;SDS011;8325;49.284;7.238;2022-07-22T08:38:35;10.77;;;7.43;;
16430;SDS011;8325;49.284;7.238;2022-07-22T08:42:47;12.20;;;7.20;;
16430;SDS011;8325;49.284;7.238;2022-07-22T08:47:01;11.45;;;7.43;;
16430;SDS011;8325;49.284;7.238;2022-07-22T08:51:50;10.57;;;7.65;;
16430;SDS011;8325;49.284;7.238;2022-07-22T08:56:05;9.50;;;7.75;;
16430;SDS011;8325;49.284;7.238;2022-07-22T09:00:18;11.60;;;7.22;;
16430;SDS011;8325;49.284;7.238;2022-07-22T09:04:37;8.45;;;7.55;;
16430;SDS011;8325;49.284;7.238;2022-07-22T09:09:03;9.32;;;7.78;;
16430;SDS011;8325;49.284;7.238;2022-07-22T09:13:46;10.63;;;7.88;;
16430;SDS011;8325;49.284;7.238;2022-07-22T09:18:24;9.63;;;7.63;;
16430;SDS011;8325;49.284;7.238;2022-07-22T09:22:55;9.85;;;8.20;;
16430;SDS011;8325;49.284;7.238;2022-07-22T09:27:09;8.73;;;7.43;;
16430;SDS011;8325;49.284;7.238;2022-07-22T09:31:33;9.02;;;7.80;;
16430;SDS011;8325;49.284;7.238;2022-07-22T09:36:04;8.77;;;7.90;;
16430;SDS011;8325;49.284;7.238;2022-07-22T09:40:20;11.25;;;8.48;;
16430;SDS011;8325;49.284;7.238;2022-07-22T09:44:33;9.02;;;8.13;;
16430;SDS011;8325;49.284;7.238;2022-07-22T09:48:56;10.43;;;7.55;;
16430;SDS011;8325;49.284;7.238;2022-07-22T09:53:24;11.82;;;8.45;;
16430;SDS011;8325;49.284;7.238;2022-07-22T09:57:52;8.25;;;7.43;;
16430;SDS011;8325;49.284;7.238;2022-07-22T10:02:05;10.98;;;8.75;;
16430;SDS011;8325;49.284;7.238;2022-07-22T10:06:19;10.82;;;8.75;;
16430;SDS011;8325;49.284;7.238;2022-07-22T10:10:32;8.43;;;7.55;;
16430;SDS011;8325;49.284;7.238;2022-07-22T10:14:44;10.43;;;8.10;;
16430;SDS011;8325;49.284;7.238;2022-07-22T10:18:57;13.02;;;8.63;;
16430;SDS011;8325;49.284;7.238;2022-07-22T10:23:10;8.93;;;8.07;;
16430;SDS011;8325;49.284;7.238;2022-07-22T10:36:36;8.70;;;7.90;;
16430;SDS011;8325;49.284;7.238;2022-07-22T10:40:56;11.73;;;8.05;;
16430;SDS011;8325;49.284;7.238;2022-07-22T10:45:08;9.68;;;8.40;;
16430;SDS011;8325;49.284;7.238;2022-07-22T10:49:22;9.90;;;8.43;;
16430;SDS011;8325;49.284;7.238;2022-07-22T10:57:53;10.50;;;8.05;;
16430;SDS011;8325;49.284;7.238;2022-07-22T11:02:04;8.38;;;7.57;;
16430;SDS011;8325;49.284;7.238;2022-07-22T11:06:24;9.07;;;7.90;;
16430;SDS011;8325;49.284;7.238;2022-07-22T11:10:46;9.02;;;7.85;;
16430;SDS011;8325;49.284;7.238;2022-07-22T11:15:00;10.15;;;8.68;;
16430;SDS011;8325;49.284;7.238;2022-07-22T11:19:12;8.88;;;7.82;;
16430;SDS011;8325;49.284;7.238;2022-07-22T11:23:27;8.50;;;7.60;;
16430;SDS011;8325;49.284;7.238;2022-07-22T11:27:39;8.82;;;7.70;;
16430;SDS011;8325;49.284;7.238;2022-07-22T11:31:50;10.00;;;8.38;;
16430;SDS011;8325;49.284;7.238;2022-07-22T11:36:06;9.25;;;8.05;;
16430;SDS011;8325;49.284;7.238;2022-07-22T11:40:20;8.55;;;7.75;;
16430;SDS011;8325;49.284;7.238;2022-07-22T11:44:33;8.85;;;7.53;;
16430;SDS011;8325;49.284;7.238;2022-07-22T11:48:47;8.77;;;7.97;;
16430;SDS011;8325;49.284;7.238;2022-07-22T11:53:01;8.75;;;7.85;;
16430;SDS011;8325;49.284;7.238;2022-07-22T11:57:14;10.50;;;7.80;;
16430;SDS011;8325;49.284;7.238;2022-07-22T12:01:26;8.35;;;7.53;;
16430;SDS011;8325;49.284;7.238;2022-07-22T12:05:39;8.63;;;7.72;;
16430;SDS011;8325;49.284;7.238;2022-07-22T12:09:51;8.90;;;7.40;;
16430;SDS011;8325;49.284;7.238;2022-07-22T12:14:07;8.73;;;7.82;;
16430;SDS011;8325;49.284;7.238;2022-07-22T12:18:26;9.88;;;7.38;;
16430;SDS011;8325;49.284;7.238;2022-07-22T12:22:46;7.90;;;7.10;;
16430;SDS011;8325;49.284;7.238;2022-07-22T12:26:58;8.65;;;7.35;;
16430;SDS011;8325;49.284;7.238;2022-07-22T12:31:40;8.15;;;7.30;;
16430;SDS011;8325;49.284;7.238;2022-07-22T12:36:00;9.00;;;7.72;;
16430;SDS011;8325;49.284;7.238;2022-07-22T12:44:30;8.48;;;7.28;;
16430;SDS011;8325;49.284;7.238;2022-07-22T12:48:52;7.80;;;7.00;;
16430;SDS011;8325;49.284;7.238;2022-07-22T12:57:27;8.55;;;7.55;;
16430;SDS011;8325;49.284;7.238;2022-07-22T13:01:38;8.27;;;7.53;;
16430;SDS011;8325;49.284;7.238;2022-07-22T13:05:50;8.18;;;7.47;;
16430;SDS011;8325;49.284;7.238;2022-07-22T13:10:04;9.65;;;7.45;;
16430;SDS011;8325;49.284;7.238;2022-07-22T13:14:18;9.40;;;7.80;;
16430;SDS011;8325;49.284;7.238;2022-07-22T13:18:30;8.63;;;6.97;;
16430;SDS011;8325;49.284;7.238;2022-07-22T13:22:42;9.77;;;7.72;;
16430;SDS011;8325;49.284;7.238;2022-07-22T13:26:54;8.23;;;7.43;;
16430;SDS011;8325;49.284;7.238;2022-07-22T13:31:05;8.35;;;7.45;;
16430;SDS011;8325;49.284;7.238;2022-07-22T13:35:17;8.10;;;7.30;;
16430;SDS011;8325;49.284;7.238;2022-07-22T13:39:29;8.95;;;7.22;;
16430;SDS011;8325;49.284;7.238;2022-07-22T13:43:40;7.68;;;6.97;;
16430;SDS011;8325;49.284;7.238;2022-07-22T13:47:52;7.85;;;7.03;;
16430;SDS011;8325;49.284;7.238;2022-07-22T13:52:04;8.63;;;7.22;;
16430;SDS011;8325;49.284;7.238;2022-07-22T13:56:15;8.43;;;7.45;;
16430;SDS011;8325;49.284;7.238;2022-07-22T14:00:28;8.43;;;7.53;;
16430;SDS011;8325;49.284;7.238;2022-07-22T14:04:40;7.75;;;6.95;;
16430;SDS011;8325;49.284;7.238;2022-07-22T14:08:51;9.07;;;8.18;;
16430;SDS011;8325;49.284;7.238;2022-07-22T14:13:03;8.50;;;7.70;;
16430;SDS011;8325;49.284;7.238;2022-07-22T14:17:14;7.68;;;7.07;;
16430;SDS011;8325;49.284;7.238;2022-07-22T14:21:32;8.38;;;7.68;;
16430;SDS011;8325;49.284;7.238;2022-07-22T14:25:45;8.75;;;7.85;;
16430;SDS011;8325;49.284;7.238;2022-07-22T14:30:00;8.00;;;7.20;;
16430;SDS011;8325;49.284;7.238;2022-07-22T14:34:12;7.60;;;6.80;;
16430;SDS011;8325;49.284;7.238;2022-07-22T14:38:24;7.95;;;7.10;;
16430;SDS011;8325;49.284;7.238;2022-07-22T14:42:35;8.00;;;7.30;;
16430;SDS011;8325;49.284;7.238;2022-07-22T14:46:47;7.10;;;6.50;;
16430;SDS011;8325;49.284;7.238;2022-07-22T14:50:58;9.60;;;7.03;;
16430;SDS011;8325;49.284;7.238;2022-07-22T14:55:10;7.63;;;6.90;;
16430;SDS011;8325;49.284;7.238;2022-07-22T14:59:22;9.82;;;8.02;;
16430;SDS011;8325;49.284;7.238;2022-07-22T15:03:36;9.55;;;7.75;;
16430;SDS011;8325;49.284;7.238;2022-07-22T15:07:48;9.68;;;7.80;;
16430;SDS011;8325;49.284;7.238;2022-07-22T15:11:59;8.75;;;7.95;;
16430;SDS011;8325;49.284;7.238;2022-07-22T15:16:11;7.47;;;6.80;;
16430;SDS011;8325;49.284;7.238;2022-07-22T15:20:24;7.22;;;6.60;;
16430;SDS011;8325;49.284;7.238;2022-07-22T15:24:36;7.55;;;6.85;;
16430;SDS011;8325;49.284;7.238;2022-07-22T15:28:48;7.60;;;6.90;;
16430;SDS011;8325;49.284;7.238;2022-07-22T15:33:01;7.75;;;7.05;;
16430;SDS011;8325;49.284;7.238;2022-07-22T15:37:13;7.60;;;6.90;;
16430;SDS011;8325;49.284;7.238;2022-07-22T15:41:31;7.03;;;6.32;;
16430;SDS011;8325;49.284;7.238;2022-07-22T15:45:43;7.47;;;6.68;;
16430;SDS011;8325;49.284;7.238;2022-07-22T15:49:55;7.47;;;6.68;;
16430;SDS011;8325;49.284;7.238;2022-07-22T15:54:06;7.30;;;6.60;;
16430;SDS011;8325;49.284;7.238;2022-07-22T15:58:18;6.95;;;6.32;;
16430;SDS011;8325;49.284;7.238;2022-07-22T16:02:48;7.90;;;7.10;;
16430;SDS011;8325;49.284;7.238;2022-07-22T16:07:00;7.80;;;7.10;;
16430;SDS011;8325;49.284;7.238;2022-07-22T16:11:14;7.47;;;6.85;;
16430;SDS011;8325;49.284;7.238;2022-07-22T16:15:25;7.95;;;7.25;;
16430;SDS011;8325;49.284;7.238;2022-07-22T16:19:37;9.02;;;7.57;;
16430;SDS011;8325;49.284;7.238;2022-07-22T16:23:49;7.90;;;7.10;;
16430;SDS011;8325;49.284;7.238;2022-07-22T16:28:00;7.93;;;7.13;;
16430;SDS011;8325;49.284;7.238;2022-07-22T16:32:14;8.48;;;7.57;;
16430;SDS011;8325;49.284;7.238;2022-07-22T16:36:26;8.07;;;7.25;;
16430;SDS011;8325;49.284;7.238;2022-07-22T16:40:37;9.00;;;8.10;;
16430;SDS011;8325;49.284;7.238;2022-07-22T16:44:49;12.52;;;7.60;;
16430;SDS011;8325;49.284;7.238;2022-07-22T16:49:01;8.75;;;7.88;;
16430;SDS011;8325;49.284;7.238;2022-07-22T16:53:13;8.90;;;7.82;;
16430;SDS011;8325;49.284;7.238;2022-07-22T16:57:25;9.38;;;8.18;;
16430;SDS011;8325;49.284;7.238;2022-07-22T17:01:38;9.52;;;7.70;;
16430;SDS011;8325;49.284;7.238;2022-07-22T17:05:49;9.57;;;7.40;;
16430;SDS011;8325;49.284;7.238;2022-07-22T17:10:01;8.35;;;7.50;;
16430;SDS011;8325;49.284;7.238;2022-07-22T17:14:13;8.55;;;7.63;;
16430;SDS011;8325;49.284;7.238;2022-07-22T17:18:25;8.95;;;8.10;;
16430;SDS011;8325;49.284;7.238;2022-07-22T17:22:38;9.93;;;7.88;;
16430;SDS011;8325;49.284;7.238;2022-07-22T17:26:50;8.13;;;7.25;;
16430;SDS011;8325;49.284;7.238;2022-07-22T17:31:04;10.80;;;8.38;;
16430;SDS011;8325;49.284;7.238;2022-07-22T17:35:16;8.93;;;8.02;;
16430;SDS011;8325;49.284;7.238;2022-07-22T17:39:28;8.60;;;7.80;;
16430;SDS011;8325;49.284;7.238;2022-07-22T17:43:45;10.63;;;8.40;;
16430;SDS011;8325;49.284;7.238;2022-07-22T17:47:56;8.50;;;7.65;;
16430;SDS011;8325;49.284;7.238;2022-07-22T17:52:09;9.85;;;8.32;;
16430;SDS011;8325;49.284;7.238;2022-07-22T17:56:21;9.85;;;8.75;;
16430;SDS011;8325;49.284;7.238;2022-07-22T18:00:42;9.57;;;8.57;;
16430;SDS011;8325;49.284;7.238;2022-07-22T18:04:54;9.77;;;8.75;;
16430;SDS011;8325;49.284;7.238;2022-07-22T18:09:06;9.70;;;8.48;;
16430;SDS011;8325;49.284;7.238;2022-07-22T18:13:17;9.68;;;8.30;;
16430;SDS011;8325;49.284;7.238;2022-07-22T18:17:29;11.00;;;8.40;;
16430;SDS011;8325;49.284;7.238;2022-07-22T18:21:41;9.45;;;8.50;;
16430;SDS011;8325;49.284;7.238;2022-07-22T18:25:52;12.02;;;9.48;;
16430;SDS011;8325;49.284;7.238;2022-07-22T18:30:04;10.52;;;9.43;;
16430;SDS011;8325;49.284;7.238;2022-07-22T18:34:16;10.02;;;9.10;;
16430;SDS011;8325;49.284;7.238;2022-07-22T18:38:28;10.00;;;9.00;;
16430;SDS011;8325;49.284;7.238;2022-07-22T18:42:39;10.10;;;8.40;;
16430;SDS011;8325;49.284;7.238;2022-07-22T18:46:51;9.55;;;8.65;;
16430;SDS011;8325;49.284;7.238;2022-07-22T18:51:03;9.75;;;8.32;;
16430;SDS011;8325;49.284;7.238;2022-07-22T18:55:15;9.80;;;8.80;;
16430;SDS011;8325;49.284;7.238;2022-07-22T18:59:27;10.68;;;9.68;;
16430;SDS011;8325;49.284;7.238;2022-07-22T19:03:39;10.15;;;9.00;;
16430;SDS011;8325;49.284;7.238;2022-07-22T19:07:50;9.70;;;8.80;;
16430;SDS011;8325;49.284;7.238;2022-07-22T19:12:02;9.60;;;8.55;;
16430;SDS011;8325;49.284;7.238;2022-07-22T19:16:13;10.13;;;9.13;;
16430;SDS011;8325;49.284;7.238;2022-07-22T19:20:25;10.77;;;9.68;;
16430;SDS011;8325;49.284;7.238;2022-07-22T19:24:37;9.93;;;8.93;;
16430;SDS011;8325;49.284;7.238;2022-07-22T19:28:48;12.10;;;9.75;;
16430;SDS011;8325;49.284;7.238;2022-07-22T19:33:00;10.90;;;9.10;;
16430;SDS011;8325;49.284;7.238;2022-07-22T19:37:11;11.13;;;9.45;;
16430;SDS011;8325;49.284;7.238;2022-07-22T19:41:24;10.05;;;8.93;;
16430;SDS011;8325;49.284;7.238;2022-07-22T19:45:35;12.80;;;9.52;;
16430;SDS011;8325;49.284;7.238;2022-07-22T19:49:47;10.57;;;9.10;;
16430;SDS011;8325;49.284;7.238;2022-07-22T19:53:59;10.60;;;9.40;;
16430;SDS011;8325;49.284;7.238;2022-07-22T19:58:11;10.77;;;9.73;;
16430;SDS011;8325;49.284;7.238;2022-07-22T20:02:22;11.60;;;10.50;;
16430;SDS011;8325;49.284;7.238;2022-07-22T20:06:34;13.80;;;11.50;;
16430;SDS011;8325;49.284;7.238;2022-07-22T20:10:46;11.40;;;10.30;;
16430;SDS011;8325;49.284;7.238;2022-07-22T20:14:57;10.98;;;9.65;;
16430;SDS011;8325;49.284;7.238;2022-07-22T20:19:16;11.13;;;9.93;;
16430;SDS011;8325;49.284;7.238;2022-07-22T20:23:28;12.15;;;9.20;;
16430;SDS011;8325;49.284;7.238;2022-07-22T20:27:40;10.25;;;9.20;;
16430;SDS011;8325;49.284;7.238;2022-07-22T20:31:52;10.82;;;9.73;;
16430;SDS011;8325;49.284;7.238;2022-07-22T20:36:04;11.02;;;9.93;;
16430;SDS011;8325;49.284;7.238;2022-07-22T20:40:15;12.20;;;10.15;;
16430;SDS011;8325;49.284;7.238;2022-07-22T20:44:27;11.65;;;9.98;;
16430;SDS011;8325;49.284;7.238;2022-07-22T20:48:39;10.65;;;9.60;;
16430;SDS011;8325;49.284;7.238;2022-07-22T20:52:51;11.20;;;10.05;;
16430;SDS011;8325;49.284;7.238;2022-07-22T20:57:02;11.55;;;10.32;;
16430;SDS011;8325;49.284;7.238;2022-07-22T21:06:48;10.77;;;9.30;;
16430;SDS011;8325;49.284;7.238;2022-07-22T21:15:47;12.25;;;10.40;;
16430;SDS011;8325;49.284;7.238;2022-07-22T21:19:58;11.93;;;10.73;;
16430;SDS011;8325;49.284;7.238;2022-07-22T21:24:11;11.90;;;10.30;;
16430;SDS011;8325;49.284;7.238;2022-07-22T21:28:39;11.88;;;10.52;;
